createdAt,value
2022-08-08T00:00:56.638Z,13.93
2022-08-08T00:04:16.256Z,13.88
2022-08-08T00:07:56.143Z,13.88
2022-08-08T00:10:53.063Z,13.86
2022-08-08T00:14:57.081Z,13.86
2022-08-08T00:18:02.605Z,13.84
2022-08-08T00:20:56.522Z,13.75
2022-08-08T00:24:02.045Z,13.76
2022-08-08T00:26:55.181Z,13.73
2022-08-08T00:29:52.448Z,13.67
2022-08-08T00:33:12.946Z,13.65
2022-08-08T00:36:08.870Z,13.62
2022-08-08T00:41:07.833Z,13.65
2022-08-08T00:43:11.811Z,13.62
2022-08-08T00:46:24.353Z,13.54
2022-08-08T00:49:32.258Z,13.55
2022-08-08T00:52:54.353Z,13.45
2022-08-08T00:55:56.510Z,13.39
2022-08-08T00:59:07.293Z,13.47
2022-08-08T01:03:57.572Z,13.40
2022-08-08T01:06:00.903Z,13.31
2022-08-08T01:09:36.179Z,13.27
2022-08-08T01:12:47.527Z,13.28
2022-08-08T01:15:47.181Z,13.27
2022-08-08T01:19:42.025Z,13.31
2022-08-08T01:22:55.835Z,13.24
2022-08-08T01:25:48.899Z,13.25
2022-08-08T01:29:11.614Z,13.16
2022-08-08T01:32:23.025Z,13.12
2022-08-08T01:35:38.587Z,13.10
2022-08-08T01:38:42.471Z,13.08
2022-08-08T01:41:46.382Z,13.05
2022-08-08T01:44:59.288Z,13.01
2022-08-08T01:48:31.075Z,12.97
2022-08-08T01:52:43.415Z,12.90
2022-08-08T01:56:28.771Z,12.83
2022-08-08T01:58:58.679Z,12.77
2022-08-08T02:02:34.043Z,12.74
2022-08-08T02:05:23.229Z,12.61
2022-08-08T02:08:37.819Z,12.63
2022-08-08T02:11:59.141Z,12.62
2022-08-08T02:14:58.800Z,12.56
2022-08-08T02:18:10.388Z,12.54
2022-08-08T02:21:20.164Z,12.49
2022-08-08T02:24:28.785Z,12.48
2022-08-08T02:27:21.473Z,12.44
2022-08-08T02:30:21.660Z,12.41
2022-08-08T02:34:00.394Z,12.32
2022-08-08T02:37:01.854Z,12.30
2022-08-08T02:40:00.210Z,12.31
2022-08-08T02:44:39.077Z,12.34
2022-08-08T02:47:17.195Z,12.25
2022-08-08T02:50:25.353Z,12.21
2022-08-08T02:53:45.480Z,12.17
2022-08-08T02:57:17.407Z,12.12
2022-08-08T03:00:33.673Z,12.10
2022-08-08T03:05:00.590Z,12.05
2022-08-08T03:07:08.669Z,12.00
2022-08-08T03:10:33.009Z,11.91
2022-08-08T03:15:58.223Z,11.92
2022-08-08T03:17:11.945Z,11.91
2022-08-08T03:20:07.978Z,11.86
2022-08-08T03:22:57.837Z,11.84
2022-08-08T03:25:50.189Z,11.79
2022-08-08T03:28:51.274Z,11.74
2022-08-08T03:32:05.888Z,11.83
2022-08-08T03:34:54.168Z,11.78
2022-08-08T03:38:53.206Z,11.78
2022-08-08T03:40:53.616Z,11.70
2022-08-08T03:43:41.707Z,11.72
2022-08-08T03:46:32.397Z,11.74
2022-08-08T03:49:58.607Z,11.71
2022-08-08T03:52:33.744Z,11.65
2022-08-08T03:55:57.355Z,11.64
2022-08-08T03:58:37.507Z,11.71
2022-08-08T04:02:13.200Z,11.72
2022-08-08T04:04:42.963Z,11.60
2022-08-08T04:07:40.397Z,11.63
2022-08-08T04:10:32.345Z,11.58
2022-08-08T04:13:23.146Z,11.59
2022-08-08T04:16:10.491Z,11.65
2022-08-08T04:18:58.711Z,11.64
2022-08-08T04:21:45.927Z,11.67
2022-08-08T04:24:32.976Z,11.70
2022-08-08T04:28:01.361Z,11.70
2022-08-08T04:30:27.687Z,11.72
2022-08-08T04:33:15.622Z,11.77
2022-08-08T04:36:02.960Z,11.78
2022-08-08T04:39:13.445Z,11.81
2022-08-08T04:41:58.882Z,11.87
2022-08-08T04:44:47.565Z,11.90
2022-08-08T04:47:36.757Z,11.89
2022-08-08T04:50:37.872Z,11.95
2022-08-08T04:54:27.444Z,12.03
2022-08-08T04:56:32.773Z,12.16
2022-08-08T04:59:24.262Z,12.18
2022-08-08T05:02:22.494Z,12.22
2022-08-08T05:05:20.331Z,12.21
2022-08-08T05:08:28.718Z,12.33
2022-08-08T05:11:23.192Z,12.34
2022-08-08T05:14:12.900Z,12.44
2022-08-08T05:17:02.111Z,12.32
2022-08-08T05:20:12.536Z,12.38
2022-08-08T05:23:02.036Z,12.42
2022-08-08T05:25:49.659Z,12.54
2022-08-08T05:28:55.991Z,12.50
2022-08-08T05:32:03.277Z,12.56
2022-08-08T05:34:53.426Z,12.68
2022-08-08T05:38:00.238Z,12.95
2022-08-08T05:40:54.431Z,13.06
2022-08-08T05:44:03.534Z,13.17
2022-08-08T05:46:53.759Z,13.26
2022-08-08T05:49:53.979Z,13.48
2022-08-08T05:52:42.407Z,13.60
2022-08-08T05:56:10.082Z,13.79
2022-08-08T05:58:57.513Z,13.94
2022-08-08T06:01:58.043Z,14.10
2022-08-08T06:04:55.137Z,14.32
2022-08-08T06:07:43.999Z,14.25
2022-08-08T06:10:34.731Z,14.49
2022-08-08T06:13:23.471Z,14.57
2022-08-08T06:16:16.310Z,14.84
2022-08-08T06:19:07.331Z,15.09
2022-08-08T06:21:57.247Z,15.25
2022-08-08T06:24:47.178Z,15.47
2022-08-08T06:27:48.359Z,15.36
2022-08-08T06:30:39.146Z,15.75
2022-08-08T06:34:27.011Z,15.80
2022-08-08T06:36:53.123Z,15.85
2022-08-08T06:39:55.860Z,16.13
2022-08-08T06:43:01.151Z,16.34
2022-08-08T06:45:48.767Z,16.59
2022-08-08T06:48:38.246Z,16.75
2022-08-08T06:51:46.639Z,16.88
2022-08-08T06:54:32.928Z,17.07
2022-08-08T06:57:20.403Z,17.12
2022-08-08T07:00:11.423Z,17.21
2022-08-08T07:03:04.761Z,17.49
2022-08-08T07:06:02.247Z,17.54
2022-08-08T07:08:57.173Z,17.75
2022-08-08T07:11:51.004Z,17.83
2022-08-08T07:15:04.324Z,17.94
2022-08-08T07:18:01.730Z,18.14
2022-08-08T07:21:05.142Z,18.05
2022-08-08T07:23:57.509Z,18.49
2022-08-08T07:26:53.868Z,18.61
2022-08-08T07:29:59.677Z,18.46
2022-08-08T07:32:49.809Z,18.67
2022-08-08T07:35:38.001Z,18.77
2022-08-08T07:38:25.922Z,19.04
2022-08-08T07:41:24.927Z,19.43
2022-08-08T07:44:37.550Z,19.67
2022-08-08T07:47:20.955Z,19.77
2022-08-08T07:50:26.076Z,19.79
2022-08-08T07:54:01.404Z,19.95
2022-08-08T07:57:08.847Z,20.10
2022-08-08T08:00:13.325Z,20.18
2022-08-08T08:03:20.686Z,20.20
2022-08-08T08:06:12.469Z,20.49
2022-08-08T08:09:08.394Z,20.52
2022-08-08T08:11:56.592Z,20.52
2022-08-08T08:14:50.023Z,20.64
2022-08-08T08:17:48.515Z,20.76
2022-08-08T08:20:36.592Z,21.09
2022-08-08T08:23:27.606Z,21.05
2022-08-08T08:26:28.590Z,21.24
2022-08-08T08:29:16.708Z,21.32
2022-08-08T08:32:08.893Z,21.38
2022-08-08T08:34:56.255Z,21.50
2022-08-08T08:38:13.307Z,21.50
2022-08-08T08:40:51.369Z,21.92
2022-08-08T08:43:42.394Z,21.83
2022-08-08T08:46:32.554Z,21.96
2022-08-08T08:49:22.158Z,22.26
2022-08-08T08:52:17.938Z,22.43
2022-08-08T08:55:13.150Z,22.44
2022-08-08T08:58:07.312Z,22.60
2022-08-08T09:01:09.118Z,22.80
2022-08-08T09:04:02.244Z,22.90
2022-08-08T09:06:51.535Z,23.05
2022-08-08T09:09:48.202Z,23.16
2022-08-08T09:12:46.903Z,23.02
2022-08-08T09:15:37.515Z,23.19
2022-08-08T09:18:30.923Z,23.18
2022-08-08T09:22:02.279Z,23.32
2022-08-08T09:24:28.370Z,23.55
2022-08-08T09:27:20.412Z,23.68
2022-08-08T09:30:10.882Z,23.91
2022-08-08T09:33:54.505Z,23.74
2022-08-08T09:36:28.341Z,23.98
2022-08-08T09:39:21.854Z,24.39
2022-08-08T09:42:21.830Z,24.53
2022-08-08T09:45:20.527Z,24.75
2022-08-08T09:48:35.127Z,24.84
2022-08-08T09:51:30.327Z,24.96
2022-08-08T09:54:45.941Z,24.67
2022-08-08T09:57:45.751Z,24.49
2022-08-08T10:00:53.155Z,24.78
2022-08-08T10:03:56.024Z,24.83
2022-08-08T10:06:45.162Z,25.25
2022-08-08T10:09:35.797Z,24.86
2022-08-08T10:12:53.035Z,25.04
2022-08-08T10:16:01.092Z,25.50
2022-08-08T10:18:49.443Z,25.42
2022-08-08T10:21:50.268Z,25.32
2022-08-08T10:24:46.873Z,25.26
2022-08-08T10:27:45.362Z,25.05
2022-08-08T10:31:00.135Z,25.70
2022-08-08T10:34:18.680Z,26.02
2022-08-08T10:36:53.286Z,26.03
2022-08-08T10:39:54.785Z,26.07
2022-08-08T10:42:43.673Z,25.60
2022-08-08T10:45:57.295Z,26.31
2022-08-08T10:48:55.981Z,26.81
2022-08-08T10:51:51.306Z,26.73
2022-08-08T10:54:41.510Z,26.90
2022-08-08T10:57:36.890Z,26.89
2022-08-08T11:00:54.318Z,26.66
2022-08-08T11:04:00.637Z,25.88
2022-08-08T11:06:59.490Z,26.56
2022-08-08T11:09:47.148Z,26.86
2022-08-08T11:12:44.374Z,27.57
2022-08-08T11:15:35.106Z,26.84
2022-08-08T11:18:40.528Z,26.62
2022-08-08T11:21:35.127Z,26.82
2022-08-08T11:24:25.709Z,27.55
2022-08-08T11:27:19.585Z,27.39
2022-08-08T11:30:24.075Z,27.96
2022-08-08T11:33:12.947Z,28.05
2022-08-08T11:36:01.248Z,27.90
2022-08-08T11:38:55.297Z,27.46
2022-08-08T11:41:45.151Z,27.33
2022-08-08T11:44:33.397Z,27.87
2022-08-08T11:47:22.270Z,27.71
2022-08-08T11:50:26.885Z,27.68
2022-08-08T11:53:16.972Z,27.80
2022-08-08T11:56:22.518Z,27.99
2022-08-08T11:59:11.189Z,27.95
2022-08-08T12:02:30.862Z,27.98
2022-08-08T12:05:13.922Z,27.86
2022-08-08T12:08:01.110Z,28.56
2022-08-08T12:10:51.381Z,28.07
2022-08-08T12:14:02.685Z,28.22
2022-08-08T12:16:52.286Z,28.11
2022-08-08T12:19:51.519Z,28.46
2022-08-08T12:22:49.718Z,28.80
2022-08-08T12:25:44.715Z,28.45
2022-08-08T12:28:39.782Z,28.26
2022-08-08T12:31:39.012Z,28.28
2022-08-08T12:34:44.893Z,28.31
2022-08-08T12:37:40.818Z,28.90
2022-08-08T12:40:57.251Z,29.02
2022-08-08T12:44:00.482Z,28.84
2022-08-08T12:47:00.274Z,28.33
2022-08-08T12:49:58.214Z,28.28
2022-08-08T12:52:54.187Z,27.92
2022-08-08T12:56:19.092Z,27.72
2022-08-08T12:59:18.581Z,27.28
2022-08-08T13:02:29.093Z,27.21
2022-08-08T13:05:26.652Z,27.09
2022-08-08T13:08:53.029Z,27.04
2022-08-08T13:12:18.094Z,27.35
2022-08-08T13:14:52.797Z,27.10
2022-08-08T13:17:54.257Z,27.33
2022-08-08T13:20:49.172Z,27.27
2022-08-08T13:23:41.650Z,27.09
2022-08-08T13:26:34.309Z,27.59
2022-08-08T13:29:21.307Z,27.42
2022-08-08T13:32:10.807Z,27.54
2022-08-08T13:34:59.264Z,27.23
2022-08-08T13:38:04.893Z,26.96
2022-08-08T13:40:54.313Z,26.93
2022-08-08T13:43:44.758Z,26.78
2022-08-08T13:46:33.973Z,26.63
2022-08-08T13:50:38.335Z,26.42
2022-08-08T13:52:37.816Z,26.72
2022-08-08T13:55:29.236Z,26.43
2022-08-08T13:58:23.531Z,26.68
2022-08-08T14:01:17.862Z,26.43
2022-08-08T14:04:04.900Z,26.48
2022-08-08T14:07:03.055Z,26.40
2022-08-08T14:10:05.547Z,26.35
2022-08-08T14:12:57.282Z,26.55
2022-08-08T14:15:50.284Z,26.64
2022-08-08T14:18:51.893Z,26.83
2022-08-08T14:21:49.159Z,27.06
2022-08-08T14:24:43.957Z,27.38
2022-08-08T14:27:36.016Z,27.16
2022-08-08T14:30:34.591Z,26.98
2022-08-08T14:33:36.333Z,27.15
2022-08-08T14:36:35.546Z,27.16
2022-08-08T14:39:25.022Z,27.26
2022-08-08T14:42:34.438Z,26.95
2022-08-08T14:45:29.003Z,26.81
2022-08-08T14:48:56.976Z,26.85
2022-08-08T14:51:52.229Z,26.83
2022-08-08T14:54:48.875Z,27.03
2022-08-08T14:58:03.049Z,27.09
2022-08-08T15:00:43.472Z,26.85
2022-08-08T15:03:35.220Z,26.94
2022-08-08T15:06:25.854Z,27.05
2022-08-08T15:09:12.858Z,27.10
2022-08-08T15:11:59.908Z,26.99
2022-08-08T15:14:46.947Z,27.01
2022-08-08T15:17:36.576Z,26.95
2022-08-08T15:20:23.749Z,27.13
2022-08-08T15:23:12.261Z,27.14
2022-08-08T15:26:03.467Z,26.96
2022-08-08T15:28:51.010Z,26.75
2022-08-08T15:32:02.935Z,26.83
2022-08-08T15:34:47.422Z,26.78
2022-08-08T15:37:34.761Z,26.51
2022-08-08T15:40:21.747Z,26.15
2022-08-08T15:43:18.633Z,26.25
2022-08-08T15:46:27.317Z,26.46
2022-08-08T15:49:23.079Z,26.84
2022-08-08T15:52:14.431Z,26.74
2022-08-08T15:55:02.098Z,26.80
2022-08-08T15:57:50.946Z,26.99
2022-08-08T16:00:37.950Z,26.54
2022-08-08T16:03:34.398Z,26.31
2022-08-08T16:06:28.505Z,26.26
2022-08-08T16:13:08.883Z,26.53
2022-08-08T16:13:20.624Z,26.64
2022-08-08T16:15:58.810Z,26.40
2022-08-08T16:18:56.478Z,26.85
2022-08-08T16:21:49.096Z,27.01
2022-08-08T16:24:40.974Z,26.89
2022-08-08T16:27:28.600Z,27.19
2022-08-08T16:30:32.412Z,27.28
2022-08-08T16:33:35.997Z,27.83
2022-08-08T16:36:33.884Z,27.95
2022-08-08T16:39:59.478Z,27.87
2022-08-08T16:42:28.364Z,28.00
2022-08-08T16:46:39.117Z,28.73
2022-08-08T16:48:22.551Z,29.10
2022-08-08T16:51:10.738Z,27.66
2022-08-08T16:55:22.472Z,27.25
2022-08-08T16:57:23.534Z,26.49
2022-08-08T17:00:26.647Z,26.01
2022-08-08T17:03:14.463Z,25.51
2022-08-08T17:06:01.826Z,25.29
2022-08-08T17:08:50.463Z,25.49
2022-08-08T17:11:38.918Z,25.46
2022-08-08T17:14:36.464Z,25.32
2022-08-08T17:18:01.403Z,25.25
2022-08-08T17:20:33.138Z,25.12
2022-08-08T17:24:01.804Z,24.70
2022-08-08T17:26:34.510Z,24.83
2022-08-08T17:29:24.741Z,24.79
2022-08-08T17:32:12.403Z,24.62
2022-08-08T17:35:54.312Z,24.49
2022-08-08T17:38:06.685Z,24.39
2022-08-08T17:40:54.496Z,24.40
2022-08-08T17:44:01.100Z,24.24
2022-08-08T17:46:54.586Z,24.15
2022-08-08T17:49:42.859Z,24.17
2022-08-08T17:52:34.432Z,23.94
2022-08-08T17:56:03.343Z,23.79
2022-08-08T17:58:29.673Z,23.67
2022-08-08T18:01:43.909Z,23.69
2022-08-08T18:04:29.046Z,23.48
2022-08-08T18:08:03.052Z,23.14
2022-08-08T18:10:31.274Z,23.22
2022-08-08T18:13:18.897Z,23.13
2022-08-08T18:16:06.503Z,22.83
2022-08-08T18:18:56.509Z,22.61
2022-08-08T18:22:01.677Z,22.62
2022-08-08T18:24:49.303Z,22.71
2022-08-08T18:27:38.260Z,22.56
2022-08-08T18:30:25.342Z,22.40
2022-08-08T18:33:36.562Z,22.17
2022-08-08T18:36:23.399Z,22.23
2022-08-08T18:39:16.527Z,21.94
2022-08-08T18:42:16.388Z,21.91
2022-08-08T18:45:09.137Z,21.93
2022-08-08T18:48:18.179Z,21.79
2022-08-08T18:51:21.701Z,21.52
2022-08-08T18:54:22.679Z,21.49
2022-08-08T18:57:15.061Z,21.35
2022-08-08T19:00:03.031Z,21.26
2022-08-08T19:02:55.746Z,20.95
2022-08-08T19:05:48.634Z,20.79
2022-08-08T19:08:38.608Z,20.57
2022-08-08T19:11:27.180Z,20.32
2022-08-08T19:14:20.364Z,20.41
2022-08-08T19:17:07.765Z,20.15
2022-08-08T19:20:02.083Z,19.99
2022-08-08T19:22:50.045Z,19.94
2022-08-08T19:26:19.460Z,19.86
2022-08-08T19:28:45.186Z,19.87
2022-08-08T19:31:35.489Z,19.72
2022-08-08T19:34:36.085Z,19.73
2022-08-08T19:37:42.574Z,19.90
2022-08-08T19:40:32.842Z,19.74
2022-08-08T19:43:19.915Z,19.79
2022-08-08T19:46:10.138Z,19.54
2022-08-08T19:49:03.189Z,19.51
2022-08-08T19:51:50.349Z,19.31
2022-08-08T19:54:39.854Z,19.20
2022-08-08T19:57:28.784Z,19.22
2022-08-08T20:00:29.066Z,19.33
2022-08-08T20:04:02.062Z,19.22
2022-08-08T20:06:24.919Z,19.11
2022-08-08T20:09:12.721Z,19.06
2022-08-08T20:12:05.446Z,19.04
2022-08-08T20:14:56.018Z,19.17
2022-08-08T20:17:47.010Z,19.05
2022-08-08T20:20:35.979Z,18.89
2022-08-08T20:23:30.229Z,18.76
2022-08-08T20:26:17.547Z,18.57
2022-08-08T20:29:11.098Z,18.54
2022-08-08T20:32:10.737Z,18.37
2022-08-08T20:35:02.401Z,18.32
2022-08-08T20:37:54.686Z,18.30
2022-08-08T20:40:42.065Z,18.30
2022-08-08T20:43:43.491Z,18.29
2022-08-08T20:46:35.536Z,18.14
2022-08-08T20:49:32.365Z,18.10
2022-08-08T20:52:28.939Z,18.04
2022-08-08T20:55:22.418Z,18.02
2022-08-08T20:58:13.719Z,17.92
2022-08-08T21:01:01.067Z,17.77
2022-08-08T21:03:59.797Z,17.73
2022-08-08T21:06:52.981Z,17.70
2022-08-08T21:10:01.462Z,17.61
2022-08-08T21:12:51.162Z,17.60
2022-08-08T21:16:04.745Z,17.55
2022-08-08T21:18:48.487Z,17.48
2022-08-08T21:21:39.564Z,17.43
2022-08-08T21:24:30.622Z,17.34
2022-08-08T21:28:06.687Z,17.29
2022-08-08T21:30:24.797Z,17.22
2022-08-08T21:33:11.885Z,17.17
2022-08-08T21:36:17.188Z,17.18
2022-08-08T21:39:06.583Z,17.14
2022-08-08T21:41:59.118Z,16.96
2022-08-08T21:44:58.996Z,17.01
2022-08-08T21:48:19.689Z,16.96
2022-08-08T21:50:55.419Z,16.86
2022-08-08T21:54:33.383Z,16.86
2022-08-08T21:56:52.104Z,16.77
2022-08-08T22:00:01.460Z,16.74
2022-08-08T22:02:47.478Z,16.71
2022-08-08T22:05:37.695Z,16.60
2022-08-08T22:08:37.086Z,16.58
2022-08-08T22:12:02.396Z,16.55
2022-08-08T22:14:36.814Z,16.53
2022-08-08T22:17:24.015Z,16.47
2022-08-08T22:20:23.841Z,16.43
2022-08-08T22:23:15.242Z,16.39
2022-08-08T22:26:26.603Z,16.33
2022-08-08T22:29:57.201Z,16.27
2022-08-08T22:32:18.066Z,16.26
2022-08-08T22:35:06.397Z,16.22
2022-08-08T22:37:55.306Z,16.19
2022-08-08T22:40:43.010Z,16.15
2022-08-08T22:43:32.204Z,16.08
2022-08-08T22:46:26.672Z,16.03
2022-08-08T22:49:19.863Z,15.96
2022-08-08T22:52:07.162Z,15.99
2022-08-08T22:55:04.444Z,15.91
2022-08-08T22:57:52.212Z,15.85
2022-08-08T23:00:41.808Z,15.84
2022-08-08T23:03:54.701Z,15.82
2022-08-08T23:06:42.705Z,15.76
2022-08-08T23:09:39.077Z,15.71
2022-08-08T23:12:40.380Z,15.72
2022-08-08T23:16:41.764Z,15.73
2022-08-08T23:18:35.484Z,15.68
2022-08-08T23:21:22.696Z,15.65
2022-08-08T23:24:09.685Z,15.61
2022-08-08T23:26:56.690Z,15.60
2022-08-08T23:29:55.097Z,15.64
2022-08-08T23:32:44.126Z,15.55
2022-08-08T23:35:34.473Z,15.48
2022-08-08T23:38:41.902Z,15.43
2022-08-08T23:41:31.745Z,15.34
2022-08-08T23:44:38.569Z,15.32
2022-08-08T23:49:04.181Z,15.35
2022-08-08T23:50:34.057Z,15.26
2022-08-08T23:54:05.730Z,15.22
2022-08-08T23:56:32.505Z,15.15
2022-08-08T23:59:21.031Z,15.12
